createdAt,value
2019-01-22T00:00:38.368Z,29.90
2019-01-22T00:03:07.206Z,30.43
2019-01-22T00:05:36.043Z,29.63
2019-01-22T00:08:05.201Z,29.95
2019-01-22T00:10:34.032Z,29.85
2019-01-22T00:13:03.186Z,30.10
2019-01-22T00:15:32.434Z,29.98
2019-01-22T00:18:01.208Z,29.18
2019-01-22T00:20:30.064Z,30.00
2019-01-22T00:23:02.820Z,28.50
2019-01-22T00:25:29.774Z,28.12
2019-01-22T00:27:59.151Z,29.00
2019-01-22T00:30:27.993Z,28.50
2019-01-22T00:32:56.747Z,27.98
2019-01-22T00:35:25.693Z,28.65
2019-01-22T00:38:13.868Z,30.60
2019-01-22T00:40:43.052Z,29.40
2019-01-22T00:43:11.797Z,30.57
2019-01-22T00:45:41.656Z,31.00
2019-01-22T00:48:10.545Z,29.57
2019-01-22T00:50:39.916Z,30.50
2019-01-22T00:53:10.040Z,30.68
2019-01-22T00:55:39.122Z,30.27
2019-01-22T00:58:08.019Z,28.95
2019-01-22T01:00:36.929Z,28.70
2019-01-22T01:03:05.755Z,29.67
2019-01-22T01:05:34.593Z,30.05
2019-01-22T01:08:22.658Z,29.33
2019-01-22T01:10:51.606Z,29.70
2019-01-22T01:13:20.615Z,30.27
2019-01-22T01:15:49.681Z,30.17
2019-01-22T01:18:18.809Z,30.88
2019-01-22T01:20:47.585Z,29.10
2019-01-22T01:23:17.052Z,30.48
2019-01-22T01:25:46.369Z,30.70
2019-01-22T01:28:15.564Z,30.75
2019-01-22T01:30:44.481Z,31.65
2019-01-22T01:33:13.253Z,31.30
2019-01-22T01:35:42.185Z,31.13
2019-01-22T01:38:11.333Z,31.12
2019-01-22T01:40:40.733Z,31.77
2019-01-22T01:43:10.132Z,32.85
2019-01-22T01:45:39.231Z,31.42
2019-01-22T01:48:08.945Z,30.27
2019-01-22T01:50:37.728Z,31.40
2019-01-22T01:53:06.793Z,30.95
2019-01-22T01:55:35.657Z,32.83
2019-01-22T01:58:04.834Z,32.20
2019-01-22T02:00:33.676Z,32.28
2019-01-22T02:03:02.790Z,32.40
2019-01-22T02:05:31.593Z,31.87
2019-01-22T02:08:00.334Z,33.42
2019-01-22T02:10:29.145Z,34.10
2019-01-22T02:13:01.066Z,34.92
2019-01-22T02:16:08.687Z,34.10
2019-01-22T02:19:07.684Z,34.13
2019-01-22T02:22:37.783Z,34.13
2019-01-22T02:25:16.294Z,32.73
2019-01-22T02:28:22.519Z,32.38
2019-01-22T02:31:18.544Z,34.63
2019-01-22T02:34:20.695Z,34.08
2019-01-22T02:37:31.088Z,34.25
2019-01-22T02:40:30.429Z,33.85
2019-01-22T02:43:35.092Z,31.33
2019-01-22T02:46:44.581Z,31.77
2019-01-22T02:49:55.870Z,31.17
2019-01-22T02:53:16.237Z,30.40
2019-01-22T02:55:56.381Z,29.98
2019-01-22T02:58:34.556Z,30.77
2019-01-22T03:01:30.099Z,30.85
2019-01-22T03:04:11.580Z,32.35
2019-01-22T03:07:18.123Z,33.63
2019-01-22T03:10:22.206Z,33.23
2019-01-22T03:13:28.222Z,33.98
2019-01-22T03:16:49.294Z,34.20
2019-01-22T03:19:40.636Z,34.25
2019-01-22T03:22:58.254Z,33.03
2019-01-22T03:25:56.352Z,34.40
2019-01-22T03:28:41.043Z,33.48
2019-01-22T03:31:38.901Z,33.70
2019-01-22T03:34:35.835Z,31.07
2019-01-22T03:37:48.361Z,31.55
2019-01-22T03:40:30.725Z,32.15
2019-01-22T03:43:40.649Z,31.40
2019-01-22T03:46:28.681Z,31.85
2019-01-22T03:49:21.354Z,32.50
2019-01-22T03:52:10.629Z,33.80
2019-01-22T03:55:16.688Z,34.30
2019-01-22T03:57:49.127Z,35.38
2019-01-22T04:00:57.855Z,35.13
2019-01-22T04:03:26.846Z,34.48
2019-01-22T04:05:57.821Z,34.13
2019-01-22T04:08:26.736Z,33.92
2019-01-22T04:11:08.982Z,31.47
2019-01-22T04:13:38.194Z,30.88
2019-01-22T04:16:07.239Z,32.05
2019-01-22T04:18:36.087Z,32.08
2019-01-22T04:21:05.432Z,31.55
2019-01-22T04:23:53.614Z,32.60
2019-01-22T04:26:54.656Z,32.90
2019-01-22T04:29:55.256Z,32.00
2019-01-22T04:32:55.535Z,33.80
2019-01-22T04:36:02.444Z,33.75
2019-01-22T04:39:14.026Z,35.43
2019-01-22T04:42:00.345Z,34.75
2019-01-22T04:45:04.409Z,36.03
2019-01-22T04:48:00.265Z,36.38
2019-01-22T04:51:07.272Z,38.73
2019-01-22T04:53:57.215Z,37.42
2019-01-22T04:56:53.155Z,39.98
2019-01-22T04:59:52.068Z,39.70
2019-01-22T05:02:47.237Z,38.33
2019-01-22T05:05:48.706Z,37.88
2019-01-22T05:09:09.259Z,39.38
2019-01-22T05:12:07.337Z,38.20
2019-01-22T05:15:14.595Z,39.00
2019-01-22T05:18:09.411Z,38.85
2019-01-22T05:21:15.889Z,37.25
2019-01-22T05:24:17.962Z,37.53
2019-01-22T05:27:09.217Z,35.50
2019-01-22T05:29:48.444Z,37.93
2019-01-22T05:32:59.512Z,40.33
2019-01-22T05:35:50.674Z,40.17
2019-01-22T05:38:43.288Z,41.03
2019-01-22T05:42:11.570Z,40.23
2019-01-22T05:45:05.476Z,40.73
2019-01-22T05:48:13.470Z,41.23
2019-01-22T05:50:53.226Z,41.07
2019-01-22T05:53:43.614Z,42.93
2019-01-22T05:56:22.933Z,43.33
2019-01-22T05:59:24.765Z,42.60
2019-01-22T06:02:03.301Z,41.28
2019-01-22T06:05:14.425Z,40.50
2019-01-22T06:08:24.445Z,39.18
2019-01-22T06:11:36.525Z,40.63
2019-01-22T06:14:55.497Z,43.10
2019-01-22T06:17:42.835Z,45.65
2019-01-22T06:20:43.137Z,45.97
2019-01-22T06:23:37.925Z,46.68
2019-01-22T06:26:31.907Z,51.03
2019-01-22T06:29:41.020Z,54.45
2019-01-22T06:32:50.235Z,61.13
2019-01-22T06:35:47.603Z,69.25
2019-01-22T06:38:44.417Z,68.92
2019-01-22T06:41:28.943Z,70.15
2019-01-22T06:44:28.510Z,67.62
2019-01-22T06:47:08.649Z,64.42
2019-01-22T06:49:59.536Z,64.00
2019-01-22T06:53:10.893Z,62.70
2019-01-22T06:56:29.121Z,58.25
2019-01-22T06:59:16.661Z,60.80
2019-01-22T07:02:22.378Z,60.35
2019-01-22T07:05:05.391Z,60.90
2019-01-22T07:08:04.450Z,61.63
2019-01-22T07:10:45.512Z,61.35
2019-01-22T07:13:20.016Z,60.52
2019-01-22T07:16:27.000Z,60.10
2019-01-22T07:19:46.397Z,59.18
2019-01-22T07:22:33.064Z,61.53
2019-01-22T07:25:55.088Z,58.30
2019-01-22T07:29:14.169Z,59.83
2019-01-22T07:31:56.757Z,58.78
2019-01-22T07:35:31.219Z,59.60
2019-01-22T07:38:25.475Z,57.20
2019-01-22T07:41:19.244Z,57.10
2019-01-22T07:44:21.323Z,58.02
2019-01-22T07:50:19.768Z,57.40
2019-01-22T07:53:02.656Z,56.27
2019-01-22T07:56:08.948Z,56.02
2019-01-22T07:58:47.862Z,55.03
2019-01-22T08:01:57.362Z,53.92
2019-01-22T08:05:20.974Z,52.85
2019-01-22T08:08:28.466Z,50.92
2019-01-22T08:11:39.712Z,52.73
2019-01-22T08:14:38.812Z,52.25
2019-01-22T08:17:39.222Z,51.88
2019-01-22T08:20:57.456Z,49.25
2019-01-22T08:23:46.047Z,49.95
2019-01-22T08:26:29.219Z,48.95
2019-01-22T08:29:50.901Z,49.73
2019-01-22T08:32:58.451Z,48.35
2019-01-22T08:35:59.978Z,50.35
2019-01-22T08:38:36.980Z,51.18
2019-01-22T08:41:44.539Z,50.58
2019-01-22T08:44:48.320Z,49.13
2019-01-22T08:47:28.070Z,48.30
2019-01-22T08:50:23.819Z,49.27
2019-01-22T08:53:33.849Z,48.13
2019-01-22T08:56:15.473Z,46.10
2019-01-22T08:59:08.314Z,47.50
2019-01-22T09:02:18.753Z,47.88
2019-01-22T09:04:58.048Z,48.25
2019-01-22T09:08:11.321Z,48.48
2019-01-22T09:11:23.497Z,46.83
2019-01-22T09:14:39.584Z,58.85
2019-01-22T09:17:34.113Z,52.17
2019-01-22T09:20:27.463Z,46.63
2019-01-22T09:23:34.660Z,47.45
2019-01-22T09:26:33.924Z,47.33
2019-01-22T09:29:18.812Z,45.98
2019-01-22T09:32:29.220Z,45.50
2019-01-22T09:35:42.207Z,45.00
2019-01-22T09:38:12.893Z,46.77
2019-01-22T09:40:42.345Z,46.20
2019-01-22T09:43:11.161Z,44.53
2019-01-22T09:45:39.960Z,44.45
2019-01-22T09:48:08.885Z,44.93
2019-01-22T09:50:37.831Z,43.40
2019-01-22T09:53:06.686Z,45.78
2019-01-22T09:55:35.551Z,46.55
2019-01-22T09:58:05.188Z,45.00
2019-01-22T10:00:33.997Z,43.00
2019-01-22T10:03:02.780Z,46.42
2019-01-22T10:05:31.859Z,46.40
2019-01-22T10:08:00.730Z,44.73
2019-01-22T10:10:29.685Z,45.28
2019-01-22T10:12:58.740Z,45.80
2019-01-22T10:15:28.076Z,46.25
2019-01-22T10:17:56.998Z,46.98
2019-01-22T10:20:26.043Z,44.77
2019-01-22T10:22:55.225Z,45.28
2019-01-22T10:25:29.390Z,46.40
2019-01-22T10:27:54.675Z,46.05
2019-01-22T10:30:24.034Z,46.45
2019-01-22T10:32:53.051Z,45.08
2019-01-22T10:35:21.977Z,44.15
2019-01-22T10:37:51.140Z,45.40
2019-01-22T10:40:22.328Z,45.30
2019-01-22T10:42:51.570Z,44.67
2019-01-22T10:45:20.829Z,44.93
2019-01-22T10:47:49.676Z,45.40
2019-01-22T10:50:19.395Z,47.58
2019-01-22T10:52:48.684Z,46.65
2019-01-22T10:55:17.532Z,43.87
2019-01-22T10:57:46.399Z,44.60
2019-01-22T11:00:21.395Z,43.48
2019-01-22T11:02:50.473Z,44.48
2019-01-22T11:05:22.773Z,44.13
2019-01-22T11:07:51.891Z,45.08
2019-01-22T11:10:21.549Z,43.13
2019-01-22T11:12:50.507Z,44.55
2019-01-22T11:15:19.473Z,44.40
2019-01-22T11:17:49.015Z,44.83
2019-01-22T11:20:20.155Z,43.70
2019-01-22T11:22:48.961Z,45.33
2019-01-22T11:25:18.672Z,45.78
2019-01-22T11:27:47.755Z,46.18
2019-01-22T11:30:19.055Z,43.95
2019-01-22T11:32:47.828Z,46.37
2019-01-22T11:35:17.733Z,46.13
2019-01-22T11:37:46.536Z,44.93
2019-01-22T11:40:18.584Z,45.45
2019-01-22T11:42:47.782Z,55.85
2019-01-22T11:45:17.050Z,46.10
2019-01-22T11:47:45.846Z,46.98
2019-01-22T11:50:16.631Z,48.23
2019-01-22T11:52:45.588Z,47.80
2019-01-22T11:55:14.508Z,46.98
2019-01-22T11:57:43.368Z,47.40
2019-01-22T12:00:24.518Z,48.02
2019-01-22T12:02:53.299Z,49.60
2019-01-22T12:05:22.189Z,48.63
2019-01-22T12:07:51.444Z,47.20
2019-01-22T12:10:20.451Z,48.33
2019-01-22T12:12:49.688Z,46.65
2019-01-22T12:15:18.643Z,47.25
2019-01-22T12:17:47.583Z,47.30
2019-01-22T12:20:19.284Z,48.05
2019-01-22T12:23:07.353Z,49.40
2019-01-22T12:25:36.482Z,49.15
2019-01-22T12:28:05.474Z,48.90
2019-01-22T12:30:36.025Z,50.00
2019-01-22T12:33:06.427Z,49.15
2019-01-22T12:35:35.628Z,50.52
2019-01-22T12:38:05.340Z,50.65
2019-01-22T12:40:53.311Z,51.58
2019-01-22T12:43:22.472Z,50.10
2019-01-22T12:45:51.215Z,50.35
2019-01-22T12:48:20.868Z,49.77
2019-01-22T12:50:49.701Z,51.60
2019-01-22T12:53:18.566Z,51.00
2019-01-22T12:55:47.729Z,49.85
2019-01-22T12:58:16.558Z,51.10
2019-01-22T13:00:45.539Z,50.23
2019-01-22T13:03:14.323Z,50.98
2019-01-22T13:06:01.043Z,51.60
2019-01-22T13:08:29.928Z,51.35
2019-01-22T13:10:58.822Z,52.67
2019-01-22T13:13:27.863Z,51.33
2019-01-22T13:15:57.032Z,50.83
2019-01-22T13:18:26.171Z,52.75
2019-01-22T13:20:55.168Z,49.67
2019-01-22T13:23:24.000Z,51.45
2019-01-22T13:25:52.873Z,52.67
2019-01-22T13:28:21.892Z,52.08
2019-01-22T13:30:50.759Z,53.05
2019-01-22T13:33:19.578Z,50.80
2019-01-22T13:35:48.438Z,50.50
2019-01-22T13:38:17.199Z,51.70
2019-01-22T13:40:46.113Z,51.60
2019-01-22T13:43:14.951Z,50.20
2019-01-22T13:45:44.141Z,52.25
2019-01-22T13:48:17.759Z,56.98
2019-01-22T13:50:46.925Z,51.45
2019-01-22T13:53:15.842Z,51.13
2019-01-22T13:55:44.798Z,50.60
2019-01-22T13:58:13.559Z,49.83
2019-01-22T14:00:42.323Z,51.23
2019-01-22T14:03:30.385Z,53.78
2019-01-22T14:05:59.249Z,51.88
2019-01-22T14:08:28.106Z,51.80
2019-01-22T14:10:56.891Z,51.88
2019-01-22T14:13:26.028Z,52.98
2019-01-22T14:15:54.869Z,52.50
2019-01-22T14:18:23.724Z,51.63
2019-01-22T14:20:52.904Z,51.95
2019-01-22T14:23:21.687Z,50.95
2019-01-22T14:25:50.484Z,51.23
2019-01-22T14:28:19.564Z,50.88
2019-01-22T14:30:48.864Z,50.05
2019-01-22T14:33:17.644Z,50.28
2019-01-22T14:35:46.432Z,51.00
2019-01-22T14:38:15.219Z,50.43
2019-01-22T14:40:44.001Z,50.83
2019-01-22T14:43:12.940Z,50.45
2019-01-22T14:45:41.731Z,51.50
2019-01-22T14:48:10.578Z,50.95
2019-01-22T14:50:39.540Z,51.05
2019-01-22T14:53:08.393Z,49.13
2019-01-22T14:55:37.197Z,50.52
2019-01-22T14:58:06.454Z,50.28
2019-01-22T15:00:35.490Z,50.43
2019-01-22T15:03:04.935Z,51.00
2019-01-22T15:05:33.808Z,51.10
2019-01-22T15:08:02.584Z,51.20
2019-01-22T15:10:31.632Z,52.25
2019-01-22T15:13:02.200Z,50.23
2019-01-22T15:15:31.649Z,49.30
2019-01-22T15:18:01.046Z,50.20
2019-01-22T15:20:30.139Z,49.10
2019-01-22T15:23:18.129Z,50.15
2019-01-22T15:25:47.119Z,48.70
2019-01-22T15:28:16.570Z,49.48
2019-01-22T15:31:04.644Z,50.03
2019-01-22T15:33:33.422Z,48.33
2019-01-22T15:36:02.963Z,49.50
2019-01-22T15:38:32.219Z,48.65
2019-01-22T15:41:00.994Z,49.27
2019-01-22T15:43:30.463Z,50.10
2019-01-22T15:45:59.907Z,50.05
2019-01-22T15:48:28.746Z,49.38
2019-01-22T15:50:57.723Z,49.85
2019-01-22T15:53:26.875Z,49.20
2019-01-22T15:55:55.747Z,49.27
2019-01-22T15:58:24.507Z,49.38
2019-01-22T16:00:53.351Z,48.15
2019-01-22T16:03:22.130Z,47.85
2019-01-22T16:05:51.443Z,46.92
2019-01-22T16:08:20.360Z,47.55
2019-01-22T16:10:49.540Z,48.08
2019-01-22T16:13:18.791Z,47.00
2019-01-22T16:15:47.839Z,47.38
2019-01-22T16:18:16.908Z,47.65
2019-01-22T16:20:45.667Z,47.73
2019-01-22T16:23:14.501Z,47.55
2019-01-22T16:25:43.729Z,47.43
2019-01-22T16:28:12.498Z,47.55
2019-01-22T16:30:41.346Z,44.65
2019-01-22T16:33:10.182Z,45.13
2019-01-22T16:35:39.279Z,44.42
2019-01-22T16:38:09.167Z,45.48
2019-01-22T16:40:38.068Z,45.12
2019-01-22T16:43:06.920Z,45.40
2019-01-22T16:45:36.934Z,43.60
2019-01-22T16:48:07.212Z,45.87
2019-01-22T16:50:41.135Z,45.25
2019-01-22T16:53:21.327Z,45.00
2019-01-22T16:55:50.475Z,44.00
2019-01-22T16:58:19.652Z,42.40
2019-01-22T17:00:48.762Z,38.30
2019-01-22T17:03:17.804Z,34.60
2019-01-22T17:05:47.698Z,32.88
2019-01-22T17:08:16.761Z,32.30
2019-01-22T17:10:45.587Z,32.67
2019-01-22T17:13:14.423Z,34.25
2019-01-22T17:15:44.066Z,33.45
2019-01-22T17:18:13.286Z,34.90
2019-01-22T17:20:47.775Z,32.48
2019-01-22T17:23:16.684Z,33.10
2019-01-22T17:25:45.831Z,34.60
2019-01-22T17:28:15.683Z,31.87
2019-01-22T17:30:44.689Z,31.15
2019-01-22T17:33:33.779Z,31.48
2019-01-22T17:36:02.947Z,31.85
2019-01-22T17:38:31.816Z,31.10
2019-01-22T17:41:00.578Z,31.50
2019-01-22T17:43:29.430Z,31.93
2019-01-22T17:45:58.225Z,32.30
2019-01-22T17:48:27.587Z,30.02
2019-01-22T17:50:56.663Z,30.40
2019-01-22T17:53:25.816Z,29.87
2019-01-22T17:55:55.080Z,30.08
2019-01-22T17:58:25.227Z,30.40
2019-01-22T18:00:54.703Z,29.15
2019-01-22T18:03:23.491Z,29.50
2019-01-22T18:05:52.344Z,31.35
2019-01-22T18:08:21.213Z,30.48
2019-01-22T18:10:50.599Z,29.23
2019-01-22T18:13:19.818Z,30.30
2019-01-22T18:16:08.165Z,29.95
2019-01-22T18:18:36.923Z,30.95
2019-01-22T18:21:05.825Z,31.45
2019-01-22T18:23:34.591Z,30.20
2019-01-22T18:26:03.507Z,30.60
2019-01-22T18:28:33.130Z,30.65
2019-01-22T18:31:02.616Z,33.58
2019-01-22T18:33:31.568Z,32.13
2019-01-22T18:36:02.055Z,32.38
2019-01-22T18:38:31.638Z,31.37
2019-01-22T18:41:00.765Z,32.20
2019-01-22T18:43:29.816Z,30.43
2019-01-22T18:45:58.647Z,31.73
2019-01-22T18:48:28.173Z,31.00
2019-01-22T18:50:56.947Z,31.97
2019-01-22T18:53:26.123Z,32.55
2019-01-22T18:55:54.966Z,34.25
2019-01-22T18:58:24.162Z,32.95
2019-01-22T19:00:53.340Z,31.87
2019-01-22T19:03:22.115Z,31.95
2019-01-22T19:05:51.011Z,33.08
2019-01-22T19:08:21.232Z,32.17
2019-01-22T19:10:50.077Z,34.75
2019-01-22T19:13:18.844Z,36.10
2019-01-22T19:15:47.760Z,31.77
2019-01-22T19:18:16.632Z,32.00
2019-01-22T19:20:45.492Z,30.77
2019-01-22T19:23:15.091Z,34.85
2019-01-22T19:25:44.268Z,32.58
2019-01-22T19:28:13.026Z,35.28
2019-01-22T19:30:42.567Z,33.05
2019-01-22T19:33:11.468Z,31.95
2019-01-22T19:35:40.678Z,30.72
2019-01-22T19:38:10.207Z,33.30
2019-01-22T19:40:39.169Z,32.65
2019-01-22T19:43:08.168Z,32.40
2019-01-22T19:45:37.480Z,32.28
2019-01-22T19:48:06.588Z,32.58
2019-01-22T19:50:35.835Z,35.00
2019-01-22T19:53:04.997Z,33.13
2019-01-22T19:55:34.696Z,31.90
2019-01-22T19:58:03.663Z,32.60
2019-01-22T20:00:38.379Z,31.35
2019-01-22T20:03:08.798Z,32.45
2019-01-22T20:05:37.981Z,29.80
2019-01-22T20:08:08.161Z,31.33
2019-01-22T20:10:37.322Z,31.30
2019-01-22T20:13:06.328Z,31.53
2019-01-22T20:15:35.512Z,31.17
2019-01-22T20:18:04.743Z,31.07
2019-01-22T20:20:33.518Z,32.23
2019-01-22T20:23:02.327Z,31.17
2019-01-22T20:25:31.092Z,31.17
2019-01-22T20:27:59.966Z,31.17
2019-01-22T20:30:34.788Z,31.57
2019-01-22T20:33:03.851Z,30.35
2019-01-22T20:35:33.520Z,31.20
2019-01-22T20:38:02.419Z,30.68
2019-01-22T20:40:32.108Z,30.80
2019-01-22T20:43:01.711Z,30.45
2019-01-22T20:45:30.839Z,30.88
2019-01-22T20:47:59.699Z,30.40
2019-01-22T20:50:28.652Z,30.75
2019-01-22T20:52:57.680Z,30.95
2019-01-22T20:55:27.282Z,31.02
2019-01-22T20:57:56.508Z,30.45
2019-01-22T21:00:25.824Z,30.23
2019-01-22T21:02:54.838Z,30.82
2019-01-22T21:05:25.984Z,30.35
2019-01-22T21:07:54.820Z,31.52
2019-01-22T21:10:25.683Z,32.13
2019-01-22T21:12:54.688Z,32.58
2019-01-22T21:15:24.084Z,32.00
2019-01-22T21:17:53.096Z,32.48
2019-01-22T21:20:26.583Z,31.97
2019-01-22T21:22:55.487Z,31.42
2019-01-22T21:25:24.524Z,31.50
2019-01-22T21:27:53.410Z,31.37
2019-01-22T21:30:30.519Z,30.73
2019-01-22T21:33:01.691Z,30.65
2019-01-22T21:35:30.872Z,31.33
2019-01-22T21:37:59.632Z,30.50
2019-01-22T21:40:28.460Z,30.62
2019-01-22T21:42:57.578Z,30.52
2019-01-22T21:45:26.942Z,31.12
2019-01-22T21:47:55.998Z,30.50
2019-01-22T21:50:24.898Z,32.38
2019-01-22T21:52:53.838Z,32.73
2019-01-22T21:55:23.141Z,33.05
2019-01-22T21:57:52.526Z,32.58
2019-01-22T22:00:23.162Z,32.83
2019-01-22T22:02:52.307Z,32.85
2019-01-22T22:05:24.419Z,33.65
2019-01-22T22:07:54.037Z,31.42
2019-01-22T22:10:29.267Z,33.28
2019-01-22T22:12:58.132Z,33.60
2019-01-22T22:15:46.584Z,33.17
2019-01-22T22:18:16.186Z,33.98
2019-01-22T22:20:45.334Z,33.48
2019-01-22T22:23:14.144Z,34.92
2019-01-22T22:25:43.722Z,34.60
2019-01-22T22:28:15.397Z,33.63
2019-01-22T22:30:43.032Z,33.67
2019-01-22T22:33:11.841Z,33.55
2019-01-22T22:35:40.903Z,33.02
2019-01-22T22:38:09.849Z,33.13
2019-01-22T22:40:38.690Z,33.40
2019-01-22T22:43:07.485Z,34.50
2019-01-22T22:45:36.732Z,33.38
2019-01-22T22:48:06.362Z,33.48
2019-01-22T22:50:35.335Z,33.98
2019-01-22T22:53:04.224Z,34.10
2019-01-22T22:55:33.540Z,33.25
2019-01-22T22:58:02.745Z,32.67
2019-01-22T23:00:49.049Z,31.87
2019-01-22T23:03:18.369Z,33.45
2019-01-22T23:05:47.219Z,34.20
2019-01-22T23:08:16.001Z,34.40
2019-01-22T23:10:46.638Z,34.70
2019-01-22T23:13:15.956Z,34.50
2019-01-22T23:15:44.740Z,33.50
2019-01-22T23:18:13.960Z,33.40
2019-01-22T23:20:43.133Z,34.27
2019-01-22T23:23:12.343Z,33.18
2019-01-22T23:25:41.388Z,32.95
2019-01-22T23:28:10.568Z,34.03
2019-01-22T23:30:39.779Z,34.37
2019-01-22T23:33:11.610Z,32.67
2019-01-22T23:35:40.884Z,33.23
2019-01-22T23:38:09.751Z,32.70
2019-01-22T23:40:38.651Z,33.53
2019-01-22T23:43:07.735Z,33.20
2019-01-22T23:45:36.521Z,33.25
2019-01-22T23:48:05.702Z,33.23
2019-01-22T23:50:34.544Z,34.37
2019-01-22T23:53:03.844Z,33.90
2019-01-22T23:55:32.681Z,32.93
2019-01-22T23:58:01.463Z,33.00
